sensor_id;sensor_type;location;lat;lon;timestamp;pressure;altitude;pressure_sealevel;temperature;humidity
58658;BME280;44428;45.630;13.786;2023-02-19T00:01:39;102437.06;;;7.87;100.00
58658;BME280;44428;45.630;13.786;2023-02-19T00:04:17;102439.53;;;7.91;100.00
58658;BME280;44428;45.630;13.786;2023-02-19T00:06:45;102422.59;;;8.00;100.00
58658;BME280;44428;45.630;13.786;2023-02-19T00:09:13;102433.09;;;8.00;100.00
58658;BME280;44428;45.630;13.786;2023-02-19T00:11:39;102427.94;;;7.97;100.00
58658;BME280;44428;45.630;13.786;2023-02-19T00:14:06;102428.66;;;8.02;100.00
58658;BME280;44428;45.630;13.786;2023-02-19T00:16:38;102428.69;;;8.00;100.00
58658;BME280;44428;45.630;13.786;2023-02-19T00:19:07;102425.94;;;8.05;100.00
58658;BME280;44428;45.630;13.786;2023-02-19T00:21:33;102427.75;;;8.03;100.00
58658;BME280;44428;45.630;13.786;2023-02-19T00:24:02;102424.38;;;7.98;100.00
58658;BME280;44428;45.630;13.786;2023-02-19T00:26:29;102433.22;;;7.97;100.00
58658;BME280;44428;45.630;13.786;2023-02-19T00:28:57;102424.59;;;7.92;100.00
58658;BME280;44428;45.630;13.786;2023-02-19T00:31:25;102429.94;;;7.89;100.00
58658;BME280;44428;45.630;13.786;2023-02-19T00:33:54;102431.69;;;7.90;100.00
58658;BME280;44428;45.630;13.786;2023-02-19T00:36:21;102417.63;;;7.91;100.00
58658;BME280;44428;45.630;13.786;2023-02-19T00:38:48;102422.91;;;7.89;100.00
58658;BME280;44428;45.630;13.786;2023-02-19T00:41:15;102433.41;;;7.91;100.00
58658;BME280;44428;45.630;13.786;2023-02-19T00:44:06;102422.97;;;7.88;100.00
58658;BME280;44428;45.630;13.786;2023-02-19T00:46:38;102414.25;;;7.86;100.00
58658;BME280;44428;45.630;13.786;2023-02-19T00:49:06;102410.75;;;7.87;100.00
58658;BME280;44428;45.630;13.786;2023-02-19T00:51:35;102410.75;;;7.87;100.00
58658;BME280;44428;45.630;13.786;2023-02-19T00:54:02;102403.63;;;7.89;100.00
58658;BME280;44428;45.630;13.786;2023-02-19T00:56:28;102400.97;;;7.90;100.00
58658;BME280;44428;45.630;13.786;2023-02-19T00:58:55;102401.81;;;7.91;100.00
58658;BME280;44428;45.630;13.786;2023-02-19T01:01:21;102394.94;;;7.87;100.00
58658;BME280;44428;45.630;13.786;2023-02-19T01:03:47;102394.84;;;7.90;100.00
58658;BME280;44428;45.630;13.786;2023-02-19T01:06:16;102396.66;;;7.88;100.00
58658;BME280;44428;45.630;13.786;2023-02-19T01:08:43;102391.41;;;7.88;100.00
58658;BME280;44428;45.630;13.786;2023-02-19T01:11:10;102382.56;;;7.89;100.00
58658;BME280;44428;45.630;13.786;2023-02-19T01:13:36;102387.84;;;7.89;100.00
58658;BME280;44428;45.630;13.786;2023-02-19T01:16:40;102371.94;;;7.92;100.00
58658;BME280;44428;45.630;13.786;2023-02-19T01:18:59;102373.78;;;7.90;100.00
58658;BME280;44428;45.630;13.786;2023-02-19T01:21:26;102373.78;;;7.90;100.00
58658;BME280;44428;45.630;13.786;2023-02-19T01:23:53;102375.50;;;7.91;100.00
58658;BME280;44428;45.630;13.786;2023-02-19T01:26:25;102371.94;;;7.92;100.00
58658;BME280;44428;45.630;13.786;2023-02-19T01:28:52;102364.88;;;7.94;100.00
58658;BME280;44428;45.630;13.786;2023-02-19T01:31:20;102356.16;;;7.92;100.00
58658;BME280;44428;45.630;13.786;2023-02-19T01:33:51;102354.38;;;7.92;100.00
58658;BME280;44428;45.630;13.786;2023-02-19T01:36:17;102352.72;;;7.90;100.00
58658;BME280;44428;45.630;13.786;2023-02-19T01:38:44;102349.28;;;7.88;100.00
58658;BME280;44428;45.630;13.786;2023-02-19T01:41:14;102347.38;;;7.93;100.00
58658;BME280;44428;45.630;13.786;2023-02-19T01:44:06;102341.13;;;7.95;100.00
58658;BME280;44428;45.630;13.786;2023-02-19T01:46:36;102342.00;;;7.96;100.00
58658;BME280;44428;45.630;13.786;2023-02-19T01:49:10;102336.75;;;7.96;100.00
58658;BME280;44428;45.630;13.786;2023-02-19T01:51:43;102322.75;;;7.94;100.00
58658;BME280;44428;45.630;13.786;2023-02-19T01:54:13;102328.03;;;7.94;100.00
58658;BME280;44428;45.630;13.786;2023-02-19T01:56:42;102324.56;;;7.92;100.00
58658;BME280;44428;45.630;13.786;2023-02-19T01:59:11;102313.84;;;7.98;100.00
58658;BME280;44428;45.630;13.786;2023-02-19T02:01:38;102313.84;;;7.98;100.00
58658;BME280;44428;45.630;13.786;2023-02-19T02:04:05;102317.38;;;7.97;100.00
58658;BME280;44428;45.630;13.786;2023-02-19T02:09:07;102317.19;;;8.03;100.00
58658;BME280;44428;45.630;13.786;2023-02-19T02:11:52;102310.09;;;8.05;100.00
58658;BME280;44428;45.630;13.786;2023-02-19T02:14:21;102305.72;;;8.04;100.00
58658;BME280;44428;45.630;13.786;2023-02-19T02:19:31;102316.16;;;8.07;100.00
58658;BME280;44428;45.630;13.786;2023-02-19T02:30:11;102303.09;;;8.04;100.00
58658;BME280;44428;45.630;13.786;2023-02-19T02:35:25;102299.47;;;8.08;100.00
58658;BME280;44428;45.630;13.786;2023-02-19T02:37:57;102294.31;;;8.05;100.00
58658;BME280;44428;45.630;13.786;2023-02-19T02:40:25;102291.69;;;8.05;100.00
58658;BME280;44428;45.630;13.786;2023-02-19T02:42:51;102295.06;;;8.09;100.00
58658;BME280;44428;45.630;13.786;2023-02-19T02:48:49;102302.09;;;8.08;100.00
58658;BME280;44428;45.630;13.786;2023-02-19T02:54:14;102280.94;;;8.11;100.00
58658;BME280;44428;45.630;13.786;2023-02-19T02:57:05;102283.56;;;8.11;100.00
58658;BME280;44428;45.630;13.786;2023-02-19T02:59:38;102274.00;;;8.09;100.00
58658;BME280;44428;45.630;13.786;2023-02-19T03:02:13;102268.44;;;8.16;100.00
58658;BME280;44428;45.630;13.786;2023-02-19T03:05:07;102264.25;;;8.11;100.00
58658;BME280;44428;45.630;13.786;2023-02-19T03:10:57;102260.66;;;8.13;100.00
58658;BME280;44428;45.630;13.786;2023-02-19T03:13:32;102261.50;;;8.14;100.00
58658;BME280;44428;45.630;13.786;2023-02-19T03:16:25;102258.13;;;8.10;100.00
58658;BME280;44428;45.630;13.786;2023-02-19T03:19:14;102260.75;;;8.10;100.00
58658;BME280;44428;45.630;13.786;2023-02-19T03:24:22;102252.94;;;8.09;100.00
58658;BME280;44428;45.630;13.786;2023-02-19T03:27:08;102245.06;;;8.07;100.00
58658;BME280;44428;45.630;13.786;2023-02-19T03:29:42;102243.97;;;8.14;100.00
58658;BME280;44428;45.630;13.786;2023-02-19T03:32:16;102248.19;;;8.18;100.00
58658;BME280;44428;45.630;13.786;2023-02-19T03:34:48;102246.59;;;8.14;100.00
58658;BME280;44428;45.630;13.786;2023-02-19T03:40:17;102244.00;;;8.13;100.00
58658;BME280;44428;45.630;13.786;2023-02-19T03:45:50;102235.19;;;8.14;100.00
58658;BME280;44428;45.630;13.786;2023-02-19T03:48:50;102236.91;;;8.15;100.00
58658;BME280;44428;45.630;13.786;2023-02-19T03:51:32;102233.22;;;8.20;100.00
58658;BME280;44428;45.630;13.786;2023-02-19T03:54:15;102227.75;;;8.25;100.00
58658;BME280;44428;45.630;13.786;2023-02-19T03:56:49;102228.72;;;8.22;100.00
58658;BME280;44428;45.630;13.786;2023-02-19T04:02:11;102225.66;;;8.11;100.00
58658;BME280;44428;45.630;13.786;2023-02-19T04:04:44;102224.75;;;8.11;100.00
58658;BME280;44428;45.630;13.786;2023-02-19T04:07:11;102225.66;;;8.11;100.00
58658;BME280;44428;45.630;13.786;2023-02-19T04:09:46;102227.34;;;8.12;100.00
58658;BME280;44428;45.630;13.786;2023-02-19T04:12:18;102240.34;;;8.17;100.00
58658;BME280;44428;45.630;13.786;2023-02-19T04:14:49;102228.81;;;8.21;100.00
58658;BME280;44428;45.630;13.786;2023-02-19T04:17:32;102223.69;;;8.16;100.00
58658;BME280;44428;45.630;13.786;2023-02-19T04:20:02;102228.31;;;8.10;100.00
58658;BME280;44428;45.630;13.786;2023-02-19T04:22:31;102230.09;;;8.09;100.00
58658;BME280;44428;45.630;13.786;2023-02-19T04:24:58;102226.66;;;8.07;100.00
58658;BME280;44428;45.630;13.786;2023-02-19T04:27:24;102232.84;;;8.06;100.00
58658;BME280;44428;45.630;13.786;2023-02-19T04:29:50;102233.75;;;8.05;100.00
58658;BME280;44428;45.630;13.786;2023-02-19T04:32:16;102229.38;;;8.04;100.00
58658;BME280;44428;45.630;13.786;2023-02-19T04:34:42;102223.22;;;8.05;100.00
58658;BME280;44428;45.630;13.786;2023-02-19T04:37:08;102214.34;;;8.08;100.00
58658;BME280;44428;45.630;13.786;2023-02-19T04:39:35;102218.53;;;8.13;100.00
58658;BME280;44428;45.630;13.786;2023-02-19T04:42:01;102213.25;;;8.13;100.00
58658;BME280;44428;45.630;13.786;2023-02-19T04:44:27;102216.81;;;8.12;100.00
58658;BME280;44428;45.630;13.786;2023-02-19T04:46:54;102208.09;;;8.10;100.00
58658;BME280;44428;45.630;13.786;2023-02-19T04:49:20;102208.94;;;8.12;100.00
58658;BME280;44428;45.630;13.786;2023-02-19T04:51:46;102204.47;;;8.14;100.00
58658;BME280;44428;45.630;13.786;2023-02-19T04:54:12;102213.25;;;8.13;100.00
58658;BME280;44428;45.630;13.786;2023-02-19T04:56:39;102204.47;;;8.14;100.00
58658;BME280;44428;45.630;13.786;2023-02-19T04:59:05;102206.19;;;8.15;100.00
58658;BME280;44428;45.630;13.786;2023-02-19T05:01:31;102196.63;;;8.13;100.00
58658;BME280;44428;45.630;13.786;2023-02-19T05:03:57;102201.03;;;8.12;100.00
58658;BME280;44428;45.630;13.786;2023-02-19T05:06:23;102205.44;;;8.12;100.00
58658;BME280;44428;45.630;13.786;2023-02-19T05:08:49;102198.50;;;8.09;100.00
58658;BME280;44428;45.630;13.786;2023-02-19T05:11:15;102197.81;;;8.04;100.00
58658;BME280;44428;45.630;13.786;2023-02-19T05:13:41;102202.22;;;8.03;100.00
58658;BME280;44428;45.630;13.786;2023-02-19T05:16:12;102195.88;;;8.09;100.00
58658;BME280;44428;45.630;13.786;2023-02-19T05:18:41;102195.88;;;8.09;100.00
58658;BME280;44428;45.630;13.786;2023-02-19T05:21:09;102204.81;;;8.05;100.00
58658;BME280;44428;45.630;13.786;2023-02-19T05:23:35;102209.97;;;8.08;100.00
58658;BME280;44428;45.630;13.786;2023-02-19T05:26:06;102205.59;;;8.07;100.00
58658;BME280;44428;45.630;13.786;2023-02-19T05:28:33;102207.44;;;8.05;100.00
58658;BME280;44428;45.630;13.786;2023-02-19T05:31:03;102204.91;;;8.02;100.00
58658;BME280;44428;45.630;13.786;2023-02-19T05:33:29;102197.81;;;8.04;100.00
58658;BME280;44428;45.630;13.786;2023-02-19T05:35:55;102199.66;;;8.02;100.00
58658;BME280;44428;45.630;13.786;2023-02-19T05:38:22;102189.78;;;8.07;100.00
58658;BME280;44428;45.630;13.786;2023-02-19T05:40:48;102183.63;;;8.08;100.00
58658;BME280;44428;45.630;13.786;2023-02-19T05:43:15;102180.31;;;8.03;100.00
58658;BME280;44428;45.630;13.786;2023-02-19T05:45:41;102183.75;;;8.05;100.00
58658;BME280;44428;45.630;13.786;2023-02-19T05:48:09;102182.84;;;8.04;100.00
58658;BME280;44428;45.630;13.786;2023-02-19T05:50:35;102180.31;;;8.03;100.00
58658;BME280;44428;45.630;13.786;2023-02-19T05:53:11;102186.53;;;8.00;100.00
58658;BME280;44428;45.630;13.786;2023-02-19T05:55:37;102187.50;;;7.98;100.00
58658;BME280;44428;45.630;13.786;2023-02-19T05:58:03;102185.44;;;8.06;100.00
58658;BME280;44428;45.630;13.786;2023-02-19T06:00:29;102189.88;;;8.06;100.00
58658;BME280;44428;45.630;13.786;2023-02-19T06:02:57;102189.91;;;8.04;100.00
58658;BME280;44428;45.630;13.786;2023-02-19T06:05:23;102173.31;;;8.02;100.00
58658;BME280;44428;45.630;13.786;2023-02-19T06:07:49;102180.19;;;8.06;100.00
58658;BME280;44428;45.630;13.786;2023-02-19T06:10:15;102180.19;;;8.06;100.00
58658;BME280;44428;45.630;13.786;2023-02-19T06:12:42;102183.84;;;8.02;100.00
58658;BME280;44428;45.630;13.786;2023-02-19T06:15:08;102187.50;;;7.98;100.00
58658;BME280;44428;45.630;13.786;2023-02-19T06:17:34;102198.13;;;7.95;100.00
58658;BME280;44428;45.630;13.786;2023-02-19T06:20:00;102192.88;;;7.95;100.00
58658;BME280;44428;45.630;13.786;2023-02-19T06:22:26;102194.50;;;7.99;100.00
58658;BME280;44428;45.630;13.786;2023-02-19T06:24:52;102187.50;;;7.98;100.00
58658;BME280;44428;45.630;13.786;2023-02-19T06:27:18;102182.13;;;8.01;100.00
58658;BME280;44428;45.630;13.786;2023-02-19T06:29:44;102189.13;;;8.02;100.00
58658;BME280;44428;45.630;13.786;2023-02-19T06:32:10;102187.28;;;8.04;100.00
58658;BME280;44428;45.630;13.786;2023-02-19T06:34:36;102198.50;;;8.09;100.00
58658;BME280;44428;45.630;13.786;2023-02-19T06:37:02;102197.53;;;8.12;100.00
58658;BME280;44428;45.630;13.786;2023-02-19T06:39:28;102205.47;;;8.10;100.00
58658;BME280;44428;45.630;13.786;2023-02-19T06:41:55;102208.06;;;8.12;100.00
58658;BME280;44428;45.630;13.786;2023-02-19T06:44:21;102206.28;;;8.12;100.00
58658;BME280;44428;45.630;13.786;2023-02-19T06:46:47;102197.34;;;8.16;100.00
58658;BME280;44428;45.630;13.786;2023-02-19T06:49:13;102190.38;;;8.15;100.00
58658;BME280;44428;45.630;13.786;2023-02-19T06:51:40;102197.25;;;8.19;100.00
58658;BME280;44428;45.630;13.786;2023-02-19T06:54:06;102209.50;;;8.20;100.00
58658;BME280;44428;45.630;13.786;2023-02-19T06:56:35;102207.56;;;8.25;100.00
58658;BME280;44428;45.630;13.786;2023-02-19T06:59:04;102205.63;;;8.31;100.00
58658;BME280;44428;45.630;13.786;2023-02-19T07:01:31;102199.06;;;8.42;100.00
58658;BME280;44428;45.630;13.786;2023-02-19T07:03:58;102196.56;;;8.38;100.00
58658;BME280;44428;45.630;13.786;2023-02-19T07:06:25;102199.28;;;8.36;100.00
58658;BME280;44428;45.630;13.786;2023-02-19T07:08:51;102205.41;;;8.37;100.00
58658;BME280;44428;45.630;13.786;2023-02-19T07:11:18;102194.84;;;8.37;100.00
58658;BME280;44428;45.630;13.786;2023-02-19T07:13:44;102198.41;;;8.36;100.00
58658;BME280;44428;45.630;13.786;2023-02-19T07:16:11;102196.47;;;8.41;100.00
58658;BME280;44428;45.630;13.786;2023-02-19T07:18:39;102207.03;;;8.41;100.00
58658;BME280;44428;45.630;13.786;2023-02-19T07:21:10;102205.31;;;8.40;100.00
58658;BME280;44428;45.630;13.786;2023-02-19T07:23:37;102213.91;;;8.45;100.00
58658;BME280;44428;45.630;13.786;2023-02-19T07:26:03;102199.69;;;8.49;100.00
58658;BME280;44428;45.630;13.786;2023-02-19T07:28:29;102195.41;;;8.46;100.00
58658;BME280;44428;45.630;13.786;2023-02-19T07:31:00;102210.34;;;8.46;100.00
58658;BME280;44428;45.630;13.786;2023-02-19T07:33:26;102206.78;;;8.47;100.00
58658;BME280;44428;45.630;13.786;2023-02-19T07:35:52;102211.94;;;8.50;100.00
58658;BME280;44428;45.630;13.786;2023-02-19T07:38:20;102206.66;;;8.50;100.00
58658;BME280;44428;45.630;13.786;2023-02-19T07:40:54;102230.25;;;8.53;100.00
58658;BME280;44428;45.630;13.786;2023-02-19T07:43:21;102238.13;;;8.55;100.00
58658;BME280;44428;45.630;13.786;2023-02-19T07:45:47;102236.22;;;8.58;100.00
58658;BME280;44428;45.630;13.786;2023-02-19T07:48:14;102223.06;;;8.58;100.00
58658;BME280;44428;45.630;13.786;2023-02-19T07:50:40;102230.84;;;8.61;100.00
58658;BME280;44428;45.630;13.786;2023-02-19T07:53:06;102222.91;;;8.63;100.00
58658;BME280;44428;45.630;13.786;2023-02-19T07:55:32;102223.75;;;8.63;100.00
58658;BME280;44428;45.630;13.786;2023-02-19T07:57:59;102219.22;;;8.67;100.00
58658;BME280;44428;45.630;13.786;2023-02-19T08:00:26;102214.81;;;8.67;100.00
58658;BME280;44428;45.630;13.786;2023-02-19T08:02:52;102225.22;;;8.70;100.00
58658;BME280;44428;45.630;13.786;2023-02-19T08:05:25;102223.53;;;8.69;100.00
58658;BME280;44428;45.630;13.786;2023-02-19T08:07:52;102230.38;;;8.74;100.00
58658;BME280;44428;45.630;13.786;2023-02-19T08:10:18;102237.38;;;8.75;100.00
58658;BME280;44428;45.630;13.786;2023-02-19T08:13:03;102225.09;;;8.74;100.00
58658;BME280;44428;45.630;13.786;2023-02-19T08:15:45;102232.00;;;8.78;100.00
58658;BME280;44428;45.630;13.786;2023-02-19T08:18:13;102241.50;;;8.82;100.00
58658;BME280;44428;45.630;13.786;2023-02-19T08:20:39;102244.13;;;8.82;100.00
58658;BME280;44428;45.630;13.786;2023-02-19T08:23:06;102242.31;;;8.84;100.00
58658;BME280;44428;45.630;13.786;2023-02-19T08:25:32;102249.28;;;8.85;100.00
58658;BME280;44428;45.630;13.786;2023-02-19T08:27:58;102243.03;;;8.87;100.00
58658;BME280;44428;45.630;13.786;2023-02-19T08:30:26;102235.88;;;8.91;100.00
58658;BME280;44428;45.630;13.786;2023-02-19T08:32:52;102240.09;;;8.95;100.00
58658;BME280;44428;45.630;13.786;2023-02-19T08:35:18;102231.28;;;8.96;100.00
58658;BME280;44428;45.630;13.786;2023-02-19T08:37:44;102227.72;;;8.97;100.00
58658;BME280;44428;45.630;13.786;2023-02-19T08:40:11;102223.19;;;9.01;100.00
58658;BME280;44428;45.630;13.786;2023-02-19T08:42:37;102220.50;;;9.02;100.00
58658;BME280;44428;45.630;13.786;2023-02-19T08:45:04;102220.38;;;9.05;100.00
58658;BME280;44428;45.630;13.786;2023-02-19T08:47:30;102229.88;;;9.09;100.00
58658;BME280;44428;45.630;13.786;2023-02-19T08:49:56;102227.91;;;9.14;100.00
58658;BME280;44428;45.630;13.786;2023-02-19T08:52:22;102235.84;;;9.14;100.00
58658;BME280;44428;45.630;13.786;2023-02-19T08:54:48;102227.00;;;9.15;100.00
58658;BME280;44428;45.630;13.786;2023-02-19T08:57:14;102221.59;;;9.18;100.00
58658;BME280;44428;45.630;13.786;2023-02-19T08:59:39;102217.91;;;9.23;100.00
58658;BME280;44428;45.630;13.786;2023-02-19T09:02:07;102212.50;;;9.26;100.00
58658;BME280;44428;45.630;13.786;2023-02-19T09:04:33;102225.63;;;9.27;100.00
58658;BME280;44428;45.630;13.786;2023-02-19T09:07:00;102226.38;;;9.31;100.00
58658;BME280;44428;45.630;13.786;2023-02-19T09:09:26;102224.53;;;9.33;100.00
58658;BME280;44428;45.630;13.786;2023-02-19T09:11:52;102230.63;;;9.35;100.00
58658;BME280;44428;45.630;13.786;2023-02-19T09:14:18;102229.56;;;9.39;100.00
58658;BME280;44428;45.630;13.786;2023-02-19T09:16:44;102229.47;;;9.40;100.00
58658;BME280;44428;45.630;13.786;2023-02-19T09:19:10;102227.72;;;9.41;100.00
58658;BME280;44428;45.630;13.786;2023-02-19T09:21:36;102222.44;;;9.41;100.00
58658;BME280;44428;45.630;13.786;2023-02-19T09:24:02;102224.16;;;9.42;100.00
58658;BME280;44428;45.630;13.786;2023-02-19T09:26:28;102234.59;;;9.45;100.00
58658;BME280;44428;45.630;13.786;2023-02-19T09:28:54;102211.66;;;9.47;100.00
58658;BME280;44428;45.630;13.786;2023-02-19T09:31:20;102214.03;;;9.53;100.00
58658;BME280;44428;45.630;13.786;2023-02-19T09:33:47;102212.84;;;9.60;100.00
58658;BME280;44428;45.630;13.786;2023-02-19T09:36:14;102207.28;;;9.67;100.00
58658;BME280;44428;45.630;13.786;2023-02-19T09:38:40;102214.28;;;9.68;100.00
58658;BME280;44428;45.630;13.786;2023-02-19T09:41:13;102216.75;;;9.72;100.00
58658;BME280;44428;45.630;13.786;2023-02-19T09:43:41;102216.75;;;9.72;100.00
58658;BME280;44428;45.630;13.786;2023-02-19T09:46:31;102222.75;;;9.76;100.00
58658;BME280;44428;45.630;13.786;2023-02-19T09:49:04;102203.31;;;9.77;100.00
58658;BME280;44428;45.630;13.786;2023-02-19T09:51:34;102207.75;;;9.76;100.00
58658;BME280;44428;45.630;13.786;2023-02-19T09:54:03;102202.44;;;9.78;100.00
58658;BME280;44428;45.630;13.786;2023-02-19T09:56:32;102192.63;;;9.80;100.00
58658;BME280;44428;45.630;13.786;2023-02-19T09:58:59;102199.66;;;9.81;100.00
58658;BME280;44428;45.630;13.786;2023-02-19T10:01:31;102210.34;;;9.78;100.00
58658;BME280;44428;45.630;13.786;2023-02-19T10:03:58;102206.91;;;9.76;100.00
58658;BME280;44428;45.630;13.786;2023-02-19T10:06:26;102219.28;;;9.74;100.00
58658;BME280;44428;45.630;13.786;2023-02-19T10:09:20;102215.88;;;9.72;100.00
58658;BME280;44428;45.630;13.786;2023-02-19T10:11:47;102214.28;;;9.68;100.00
58658;BME280;44428;45.630;13.786;2023-02-19T10:16:47;102207.28;;;9.67;100.00
58658;BME280;44428;45.630;13.786;2023-02-19T10:19:15;102212.56;;;9.67;100.00
58658;BME280;44428;45.630;13.786;2023-02-19T10:21:41;102209.97;;;9.65;100.00
58658;BME280;44428;45.630;13.786;2023-02-19T10:24:15;102196.06;;;9.61;100.00
58658;BME280;44428;45.630;13.786;2023-02-19T10:26:45;102196.16;;;9.60;100.00
58658;BME280;44428;45.630;13.786;2023-02-19T10:29:11;102206.69;;;9.60;100.00
58658;BME280;44428;45.630;13.786;2023-02-19T10:31:37;102203.97;;;9.61;100.00
58658;BME280;44428;45.630;13.786;2023-02-19T10:34:03;102196.88;;;9.63;100.00
58658;BME280;44428;45.630;13.786;2023-02-19T10:36:40;102193.28;;;9.64;100.00
58658;BME280;44428;45.630;13.786;2023-02-19T10:39:36;102195.88;;;9.66;100.00
58658;BME280;44428;45.630;13.786;2023-02-19T10:42:04;102195.94;;;9.64;100.00
58658;BME280;44428;45.630;13.786;2023-02-19T10:44:37;102191.59;;;9.63;100.00
58658;BME280;44428;45.630;13.786;2023-02-19T10:47:06;102202.16;;;9.63;100.00
58658;BME280;44428;45.630;13.786;2023-02-19T10:49:34;102189.75;;;9.66;100.00
58658;BME280;44428;45.630;13.786;2023-02-19T10:52:18;102195.03;;;9.66;100.00
58658;BME280;44428;45.630;13.786;2023-02-19T10:54:49;102191.59;;;9.63;100.00
58658;BME280;44428;45.630;13.786;2023-02-19T11:00:24;102186.97;;;9.69;100.00
58658;BME280;44428;45.630;13.786;2023-02-19T11:03:12;102196.59;;;9.70;100.00
58658;BME280;44428;45.630;13.786;2023-02-19T11:05:50;102182.47;;;9.71;100.00
58658;BME280;44428;45.630;13.786;2023-02-19T11:08:22;102186.84;;;9.72;100.00
58658;BME280;44428;45.630;13.786;2023-02-19T11:10:50;102175.50;;;9.70;100.00
58658;BME280;44428;45.630;13.786;2023-02-19T11:13:31;102185.91;;;9.73;100.00
58658;BME280;44428;45.630;13.786;2023-02-19T11:16:05;102173.53;;;9.75;100.00
58658;BME280;44428;45.630;13.786;2023-02-19T11:18:34;102164.53;;;9.79;100.00
58658;BME280;44428;45.630;13.786;2023-02-19T11:21:06;102167.72;;;9.87;100.00
58658;BME280;44428;45.630;13.786;2023-02-19T11:23:44;102165.84;;;9.89;100.00
58658;BME280;44428;45.630;13.786;2023-02-19T11:26:33;102167.44;;;9.93;100.00
58658;BME280;44428;45.630;13.786;2023-02-19T11:29:31;102156.59;;;9.99;100.00
58658;BME280;44428;45.630;13.786;2023-02-19T11:32:36;102162.00;;;9.96;100.00
58658;BME280;44428;45.630;13.786;2023-02-19T11:35:22;102161.44;;;9.90;100.00
58658;BME280;44428;45.630;13.786;2023-02-19T11:37:59;102160.56;;;9.89;100.00
58658;BME280;44428;45.630;13.786;2023-02-19T11:47:26;102161.34;;;9.91;100.00
58658;BME280;44428;45.630;13.786;2023-02-19T11:52:41;102152.19;;;9.79;100.00
58658;BME280;44428;45.630;13.786;2023-02-19T12:00:52;102141.56;;;9.81;100.00
58658;BME280;44428;45.630;13.786;2023-02-19T12:31:46;102119.91;;;9.93;100.00
58658;BME280;44428;45.630;13.786;2023-02-19T12:37:39;102118.03;;;9.95;100.00
58658;BME280;44428;45.630;13.786;2023-02-19T12:40:19;102118.16;;;9.92;100.00
58658;BME280;44428;45.630;13.786;2023-02-19T12:48:19;102106.03;;;9.88;100.00
58658;BME280;44428;45.630;13.786;2023-02-19T12:51:21;102105.06;;;9.91;100.00
58658;BME280;44428;45.630;13.786;2023-02-19T12:53:57;102105.09;;;9.89;100.00
58658;BME280;44428;45.630;13.786;2023-02-19T12:56:47;102106.19;;;9.85;100.00
58658;BME280;44428;45.630;13.786;2023-02-19T12:59:25;102114.91;;;9.87;100.00
58658;BME280;44428;45.630;13.786;2023-02-19T13:04:40;102104.34;;;9.87;100.00
58658;BME280;44428;45.630;13.786;2023-02-19T13:07:24;102111.31;;;9.88;100.00
58658;BME280;44428;45.630;13.786;2023-02-19T13:09:56;102106.19;;;9.85;100.00
58658;BME280;44428;45.630;13.786;2023-02-19T13:12:33;102099.06;;;9.87;100.00
58658;BME280;44428;45.630;13.786;2023-02-19T13:15:14;102096.47;;;9.85;100.00
58658;BME280;44428;45.630;13.786;2023-02-19T13:17:44;102079.66;;;9.88;100.00
58658;BME280;44428;45.630;13.786;2023-02-19T13:20:38;102081.34;;;9.89;100.00
58658;BME280;44428;45.630;13.786;2023-02-19T13:23:36;102076.22;;;9.86;100.00
58658;BME280;44428;45.630;13.786;2023-02-19T13:37:52;102053.53;;;9.82;100.00
58658;BME280;44428;45.630;13.786;2023-02-19T13:40:31;102060.50;;;9.83;100.00
58658;BME280;44428;45.630;13.786;2023-02-19T13:43:01;102051.97;;;9.78;100.00
58658;BME280;44428;45.630;13.786;2023-02-19T13:50:24;102036.84;;;9.81;100.00
58658;BME280;44428;45.630;13.786;2023-02-19T13:52:53;102034.09;;;9.83;100.00
58658;BME280;44428;45.630;13.786;2023-02-19T14:06:05;102044.66;;;9.83;100.00
58658;BME280;44428;45.630;13.786;2023-02-19T14:28:11;102031.84;;;9.75;100.00
58658;BME280;44428;45.630;13.786;2023-02-19T14:30:54;102032.41;;;9.82;100.00
58658;BME280;44428;45.630;13.786;2023-02-19T14:35:58;102038.38;;;9.67;100.00
58658;BME280;44428;45.630;13.786;2023-02-19T14:38:36;102037.31;;;9.71;100.00
58658;BME280;44428;45.630;13.786;2023-02-19T14:41:05;102048.81;;;9.70;100.00
58658;BME280;44428;45.630;13.786;2023-02-19T14:43:32;102049.75;;;9.69;100.00
58658;BME280;44428;45.630;13.786;2023-02-19T14:46:23;102048.81;;;9.70;100.00
58658;BME280;44428;45.630;13.786;2023-02-19T14:48:48;102045.22;;;9.71;100.00
58658;BME280;44428;45.630;13.786;2023-02-19T14:53:49;102042.81;;;9.66;100.00
58658;BME280;44428;45.630;13.786;2023-02-19T14:56:22;102048.94;;;9.67;100.00
58658;BME280;44428;45.630;13.786;2023-02-19T14:59:06;102062.19;;;9.65;100.00
58658;BME280;44428;45.630;13.786;2023-02-19T15:01:33;102063.84;;;9.68;100.00
58658;BME280;44428;45.630;13.786;2023-02-19T15:03:59;102065.34;;;9.73;100.00
58658;BME280;44428;45.630;13.786;2023-02-19T15:06:26;102063.78;;;9.69;100.00
58658;BME280;44428;45.630;13.786;2023-02-19T15:08:57;102070.06;;;9.67;100.00
58658;BME280;44428;45.630;13.786;2023-02-19T15:11:25;102075.47;;;9.63;100.00
58658;BME280;44428;45.630;13.786;2023-02-19T15:13:56;102072.03;;;9.61;100.00
58658;BME280;44428;45.630;13.786;2023-02-19T15:16:25;102066.75;;;9.61;100.00
58658;BME280;44428;45.630;13.786;2023-02-19T15:18:52;102060.72;;;9.59;100.00
58658;BME280;44428;45.630;13.786;2023-02-19T15:21:30;102052.78;;;9.59;100.00
58658;BME280;44428;45.630;13.786;2023-02-19T15:24:04;102053.50;;;9.63;100.00
58658;BME280;44428;45.630;13.786;2023-02-19T15:26:34;102056.19;;;9.61;100.00
58658;BME280;44428;45.630;13.786;2023-02-19T15:29:03;102060.84;;;9.56;100.00